Terminal Aerodrome Forecast
Issued by NWS Omaha/Valley, NE

Home | Current Version | Previous Version | Graphics & Text | Print | Product List | Glossary On
Versions: 1 2 3 4 5 6 7 8 9 10 11 12 13 14 15 16 17 18 19 20 21 22 23 24 25 26 27 28 29 30 31 32 33 34 35 36 37 38 39
000
FTUS43 KOAX 172325
TAFOFK
TAF
KOFK 172325Z 1800/1824 09005KT P6SM SCT120
     FM180300 VRB03KT P6SM BKN120
      TEMPO 1808/1810 4SM BR BKN040
     FM181000 VRB03KT 3SM BR OVC008
      TEMPO 1811/1815 1 1/2SM BR OVC004
     FM181600 15010KT P6SM BKN025
     FM181900 16014KT P6SM BKN150=

USA.gov is the U.S. government's official web portal to all federal, state and local government web resources and services.